sensor_id;sensor_type;location;lat;lon;timestamp;pressure;altitude;pressure_sealevel;temperature;humidity
46614;BME280;32338;50.430;6.806;2023-02-17T00:01:25;66113.72;;;6.38;100.00
46614;BME280;32338;50.430;6.806;2023-02-17T00:03:54;66113.16;;;6.38;100.00
46614;BME280;32338;50.430;6.806;2023-02-17T00:06:22;66114.50;;;6.41;100.00
46614;BME280;32338;50.430;6.806;2023-02-17T00:08:49;66109.22;;;6.34;100.00
46614;BME280;32338;50.430;6.806;2023-02-17T00:11:16;66109.22;;;6.34;100.00
46614;BME280;32338;50.430;6.806;2023-02-17T00:13:43;66107.34;;;6.30;100.00
46614;BME280;32338;50.430;6.806;2023-02-17T00:16:12;66118.03;;;6.40;100.00
46614;BME280;32338;50.430;6.806;2023-02-17T00:18:41;66121.38;;;6.43;100.00
46614;BME280;32338;50.430;6.806;2023-02-17T00:21:14;66120.81;;;6.42;100.00
46614;BME280;32338;50.430;6.806;2023-02-17T00:23:42;66104.94;;;6.32;100.00
46614;BME280;32338;50.430;6.806;2023-02-17T00:26:09;66102.50;;;6.28;100.00
46614;BME280;32338;50.430;6.806;2023-02-17T00:28:35;66108.47;;;6.31;100.00
46614;BME280;32338;50.430;6.806;2023-02-17T00:31:06;66110.72;;;6.33;100.00
46614;BME280;32338;50.430;6.806;2023-02-17T00:33:33;66113.72;;;6.38;100.00
46614;BME280;32338;50.430;6.806;2023-02-17T00:36:02;66105.88;;;6.31;100.00
46614;BME280;32338;50.430;6.806;2023-02-17T00:38:31;66104.53;;;6.27;100.00
46614;BME280;32338;50.430;6.806;2023-02-17T00:40:58;66098.75;;;6.27;100.00
46614;BME280;32338;50.430;6.806;2023-02-17T00:43:25;66111.47;;;6.36;100.00
46614;BME280;32338;50.430;6.806;2023-02-17T00:45:51;66107.19;;;6.35;100.00
46614;BME280;32338;50.430;6.806;2023-02-17T00:48:18;66102.50;;;6.28;100.00
46614;BME280;32338;50.430;6.806;2023-02-17T00:50:45;66112.81;;;6.40;100.00
46614;BME280;32338;50.430;6.806;2023-02-17T00:53:11;66119.91;;;6.44;100.00
46614;BME280;32338;50.430;6.806;2023-02-17T00:55:40;66116.72;;;6.43;100.00
46614;BME280;32338;50.430;6.806;2023-02-17T00:58:06;66118.03;;;6.40;100.00
46614;BME280;32338;50.430;6.806;2023-02-17T01:00:33;66117.78;;;6.37;100.00
46614;BME280;32338;50.430;6.806;2023-02-17T01:03:00;66109.59;;;6.32;100.00
46614;BME280;32338;50.430;6.806;2023-02-17T01:05:28;66109.44;;;6.37;100.00
46614;BME280;32338;50.430;6.806;2023-02-17T01:07:56;66110.72;;;6.33;100.00
46614;BME280;32338;50.430;6.806;2023-02-17T01:10:22;66110.56;;;6.38;100.00
46614;BME280;32338;50.430;6.806;2023-02-17T01:12:50;66127.75;;;6.51;100.00
46614;BME280;32338;50.430;6.806;2023-02-17T01:15:17;66123.44;;;6.42;100.00
46614;BME280;32338;50.430;6.806;2023-02-17T01:17:44;66116.91;;;6.39;100.00
46614;BME280;32338;50.430;6.806;2023-02-17T01:20:11;66111.84;;;6.34;100.00
46614;BME280;32338;50.430;6.806;2023-02-17T01:22:38;66131.47;;;6.52;100.00
46614;BME280;32338;50.430;6.806;2023-02-17T01:25:05;66131.47;;;6.52;100.00
46614;BME280;32338;50.430;6.806;2023-02-17T01:27:32;66124.59;;;6.51;100.00
46614;BME280;32338;50.430;6.806;2023-02-17T01:30:00;66126.78;;;6.45;100.00
46614;BME280;32338;50.430;6.806;2023-02-17T01:32:26;66130.38;;;6.51;100.00
46614;BME280;32338;50.430;6.806;2023-02-17T01:34:53;66128.47;;;6.47;100.00
46614;BME280;32338;50.430;6.806;2023-02-17T01:37:20;66111.31;;;6.41;100.00
46614;BME280;32338;50.430;6.806;2023-02-17T01:39:46;66124.19;;;6.45;100.00
46614;BME280;32338;50.430;6.806;2023-02-17T01:42:14;66123.25;;;6.47;100.00
46614;BME280;32338;50.430;6.806;2023-02-17T01:47:42;66131.13;;;6.54;100.00
46614;BME280;32338;50.430;6.806;2023-02-17T01:50:10;66127.56;;;6.48;100.00
46614;BME280;32338;50.430;6.806;2023-02-17T01:52:37;66125.31;;;6.46;100.00
46614;BME280;32338;50.430;6.806;2023-02-17T01:55:07;66113.00;;;6.42;100.00
46614;BME280;32338;50.430;6.806;2023-02-17T01:57:37;66117.44;;;6.39;100.00
46614;BME280;32338;50.430;6.806;2023-02-17T02:00:07;66121.03;;;6.45;100.00
46614;BME280;32338;50.430;6.806;2023-02-17T02:02:35;66115.63;;;6.42;100.00
46614;BME280;32338;50.430;6.806;2023-02-17T02:05:04;66114.84;;;6.39;100.00
46614;BME280;32338;50.430;6.806;2023-02-17T02:07:33;66120.09;;;6.46;100.00
46614;BME280;32338;50.430;6.806;2023-02-17T02:10:00;66118.97;;;6.45;100.00
46614;BME280;32338;50.430;6.806;2023-02-17T02:12:31;66135.06;;;6.58;100.00
46614;BME280;32338;50.430;6.806;2023-02-17T02:15:00;66128.88;;;6.52;100.00
46614;BME280;32338;50.430;6.806;2023-02-17T02:17:33;66127.19;;;6.51;100.00
46614;BME280;32338;50.430;6.806;2023-02-17T02:23:14;66130.94;;;6.52;100.00
46614;BME280;32338;50.430;6.806;2023-02-17T02:26:17;66139.91;;;6.60;100.00
46614;BME280;32338;50.430;6.806;2023-02-17T02:29:04;66133.53;;;6.52;100.00
46614;BME280;32338;50.430;6.806;2023-02-17T02:31:42;66133.00;;;6.58;100.00
46614;BME280;32338;50.430;6.806;2023-02-17T02:34:15;66144.75;;;6.62;100.00
46614;BME280;32338;50.430;6.806;2023-02-17T02:36:48;66134.50;;;6.57;100.00
46614;BME280;32338;50.430;6.806;2023-02-17T02:39:18;66138.22;;;6.58;100.00
46614;BME280;32338;50.430;6.806;2023-02-17T02:41:47;66133.19;;;6.54;100.00
46614;BME280;32338;50.430;6.806;2023-02-17T02:44:18;66133.00;;;6.58;100.00
46614;BME280;32338;50.430;6.806;2023-02-17T02:46:55;66133.94;;;6.57;100.00
46614;BME280;32338;50.430;6.806;2023-02-17T02:49:23;66149.25;;;6.66;100.00
46614;BME280;32338;50.430;6.806;2023-02-17T02:51:54;66142.34;;;6.64;100.00
46614;BME280;32338;50.430;6.806;2023-02-17T02:54:37;66149.25;;;6.66;100.00
46614;BME280;32338;50.430;6.806;2023-02-17T02:57:17;66154.88;;;6.71;100.00
46614;BME280;32338;50.430;6.806;2023-02-17T02:59:52;66151.13;;;6.70;100.00
46614;BME280;32338;50.430;6.806;2023-02-17T03:02:28;66153.59;;;6.75;100.00
46614;BME280;32338;50.430;6.806;2023-02-17T03:05:03;66147.59;;;6.72;100.00
46614;BME280;32338;50.430;6.806;2023-02-17T03:07:36;66168.19;;;6.88;100.00
46614;BME280;32338;50.430;6.806;2023-02-17T03:10:07;66167.78;;;6.83;100.00
46614;BME280;32338;50.430;6.806;2023-02-17T03:12:37;66165.19;;;6.83;100.00
46614;BME280;32338;50.430;6.806;2023-02-17T03:15:10;66171.34;;;6.89;100.00
46614;BME280;32338;50.430;6.806;2023-02-17T03:17:39;66159.75;;;6.80;100.00
46614;BME280;32338;50.430;6.806;2023-02-17T03:20:08;66174.16;;;6.91;100.00
46614;BME280;32338;50.430;6.806;2023-02-17T03:22:37;66174.38;;;6.94;100.00
46614;BME280;32338;50.430;6.806;2023-02-17T03:25:06;66169.31;;;6.89;100.00
46614;BME280;32338;50.430;6.806;2023-02-17T03:27:33;66177.72;;;6.97;100.00
46614;BME280;32338;50.430;6.806;2023-02-17T03:30:00;66178.09;;;6.95;100.00
46614;BME280;32338;50.430;6.806;2023-02-17T03:32:27;66176.06;;;6.95;100.00
46614;BME280;32338;50.430;6.806;2023-02-17T03:34:54;66173.25;;;6.93;100.00
46614;BME280;32338;50.430;6.806;2023-02-17T03:37:22;66185.03;;;7.04;100.00
46614;BME280;32338;50.430;6.806;2023-02-17T03:39:48;66181.88;;;7.03;100.00
46614;BME280;32338;50.430;6.806;2023-02-17T03:42:15;66182.94;;;6.97;100.00
46614;BME280;32338;50.430;6.806;2023-02-17T03:44:42;66168.19;;;6.88;100.00
46614;BME280;32338;50.430;6.806;2023-02-17T03:47:08;66168.19;;;6.88;100.00
46614;BME280;32338;50.430;6.806;2023-02-17T03:49:35;66162.00;;;6.82;100.00
46614;BME280;32338;50.430;6.806;2023-02-17T03:52:02;66164.81;;;6.85;100.00
46614;BME280;32338;50.430;6.806;2023-02-17T03:54:30;66169.84;;;6.90;100.00
46614;BME280;32338;50.430;6.806;2023-02-17T03:56:57;66173.59;;;6.91;100.00
46614;BME280;32338;50.430;6.806;2023-02-17T03:59:25;66169.66;;;6.87;100.00
46614;BME280;32338;50.430;6.806;2023-02-17T04:01:52;66174.16;;;6.91;100.00
46614;BME280;32338;50.430;6.806;2023-02-17T04:04:19;66176.97;;;6.94;100.00
46614;BME280;32338;50.430;6.806;2023-02-17T04:06:46;66183.50;;;6.97;100.00
46614;BME280;32338;50.430;6.806;2023-02-17T04:09:13;66179.22;;;6.96;100.00
46614;BME280;32338;50.430;6.806;2023-02-17T04:11:41;66173.25;;;6.93;100.00
46614;BME280;32338;50.430;6.806;2023-02-17T04:14:08;66189.53;;;7.08;100.00
46614;BME280;32338;50.430;6.806;2023-02-17T04:16:35;66187.66;;;7.04;100.00
46614;BME280;32338;50.430;6.806;2023-02-17T04:19:03;66185.59;;;7.04;100.00
46614;BME280;32338;50.430;6.806;2023-02-17T04:21:30;66195.28;;;7.08;100.00
46614;BME280;32338;50.430;6.806;2023-02-17T04:23:59;66184.28;;;7.01;100.00
46614;BME280;32338;50.430;6.806;2023-02-17T04:26:26;66182.44;;;7.04;100.00
46614;BME280;32338;50.430;6.806;2023-02-17T04:28:54;66173.44;;;6.95;100.00
46614;BME280;32338;50.430;6.806;2023-02-17T04:31:21;66191.59;;;7.07;100.00
46614;BME280;32338;50.430;6.806;2023-02-17T04:33:48;66207.66;;;7.20;100.00
46614;BME280;32338;50.430;6.806;2023-02-17T04:36:14;66189.88;;;7.06;100.00
46614;BME280;32338;50.430;6.806;2023-02-17T04:38:41;66185.59;;;7.04;100.00
46614;BME280;32338;50.430;6.806;2023-02-17T04:41:08;66182.78;;;7.02;100.00
46614;BME280;32338;50.430;6.806;2023-02-17T04:43:34;66200.56;;;7.16;100.00
46614;BME280;32338;50.430;6.806;2023-02-17T04:46:02;66184.47;;;7.03;100.00
46614;BME280;32338;50.430;6.806;2023-02-17T04:48:29;66185.25;;;7.06;100.00
46614;BME280;32338;50.430;6.806;2023-02-17T04:50:56;66180.53;;;7.00;100.00
46614;BME280;32338;50.430;6.806;2023-02-17T04:53:22;66185.59;;;7.04;100.00
46614;BME280;32338;50.430;6.806;2023-02-17T04:55:51;66196.63;;;7.12;100.00
46614;BME280;32338;50.430;6.806;2023-02-17T04:58:18;66202.41;;;7.12;100.00
46614;BME280;32338;50.430;6.806;2023-02-17T05:00:46;66197.91;;;7.08;100.00
46614;BME280;32338;50.430;6.806;2023-02-17T05:03:14;66183.00;;;7.04;100.00
46614;BME280;32338;50.430;6.806;2023-02-17T05:05:41;66191.59;;;7.07;100.00
46614;BME280;32338;50.430;6.806;2023-02-17T05:08:08;66202.25;;;7.17;100.00
46614;BME280;32338;50.430;6.806;2023-02-17T05:10:34;66181.88;;;7.03;100.00
46614;BME280;32338;50.430;6.806;2023-02-17T05:13:01;66187.84;;;7.06;100.00
46614;BME280;32338;50.430;6.806;2023-02-17T05:15:28;66180.91;;;6.97;100.00
46614;BME280;32338;50.430;6.806;2023-02-17T05:17:54;66181.66;;;7.01;100.00
46614;BME280;32338;50.430;6.806;2023-02-17T05:20:22;66185.03;;;7.04;100.00
46614;BME280;32338;50.430;6.806;2023-02-17T05:22:49;66187.66;;;7.04;100.00
46614;BME280;32338;50.430;6.806;2023-02-17T05:25:16;66180.34;;;6.97;100.00
46614;BME280;32338;50.430;6.806;2023-02-17T05:27:42;66185.59;;;7.04;100.00
46614;BME280;32338;50.430;6.806;2023-02-17T05:30:10;66188.75;;;7.05;100.00
46614;BME280;32338;50.430;6.806;2023-02-17T05:32:36;66190.09;;;7.08;100.00
46614;BME280;32338;50.430;6.806;2023-02-17T05:35:03;66196.28;;;7.14;100.00
46614;BME280;32338;50.430;6.806;2023-02-17T05:37:31;66190.09;;;7.08;100.00
46614;BME280;32338;50.430;6.806;2023-02-17T05:39:58;66194.03;;;7.12;100.00
46614;BME280;32338;50.430;6.806;2023-02-17T05:42:25;66194.59;;;7.12;100.00
46614;BME280;32338;50.430;6.806;2023-02-17T05:44:53;66189.72;;;7.10;100.00
46614;BME280;32338;50.430;6.806;2023-02-17T05:47:19;66197.94;;;7.16;100.00
46614;BME280;32338;50.430;6.806;2023-02-17T05:49:46;66206.03;;;7.25;100.00
46614;BME280;32338;50.430;6.806;2023-02-17T05:52:13;66194.41;;;7.17;100.00
46614;BME280;32338;50.430;6.806;2023-02-17T05:54:42;66198.16;;;7.18;100.00
46614;BME280;32338;50.430;6.806;2023-02-17T05:57:09;66208.97;;;7.23;100.00
46614;BME280;32338;50.430;6.806;2023-02-17T05:59:37;66203.38;;;7.18;100.00
46614;BME280;32338;50.430;6.806;2023-02-17T06:02:04;66204.69;;;7.22;100.00
46614;BME280;32338;50.430;6.806;2023-02-17T06:04:31;66204.69;;;7.22;100.00
46614;BME280;32338;50.430;6.806;2023-02-17T06:06:58;66199.84;;;7.20;100.00
46614;BME280;32338;50.430;6.806;2023-02-17T06:09:25;66199.09;;;7.17;100.00
46614;BME280;32338;50.430;6.806;2023-02-17T06:11:53;66215.53;;;7.27;100.00
46614;BME280;32338;50.430;6.806;2023-02-17T06:14:23;66203.78;;;7.23;100.00
46614;BME280;32338;50.430;6.806;2023-02-17T06:16:50;66207.50;;;7.24;100.00
46614;BME280;32338;50.430;6.806;2023-02-17T06:19:18;66211.03;;;7.23;100.00
46614;BME280;32338;50.430;6.806;2023-02-17T06:21:44;66197.59;;;7.18;100.00
46614;BME280;32338;50.430;6.806;2023-02-17T06:24:11;66207.91;;;7.29;100.00
46614;BME280;32338;50.430;6.806;2023-02-17T06:26:37;66202.44;;;7.20;100.00
46614;BME280;32338;50.430;6.806;2023-02-17T06:29:06;66197.59;;;7.18;100.00
46614;BME280;32338;50.430;6.806;2023-02-17T06:31:33;66195.34;;;7.16;100.00
46614;BME280;32338;50.430;6.806;2023-02-17T06:33:59;66193.66;;;7.14;100.00
46614;BME280;32338;50.430;6.806;2023-02-17T06:36:26;66191.78;;;7.10;100.00
46614;BME280;32338;50.430;6.806;2023-02-17T06:38:52;66188.06;;;7.09;100.00
46614;BME280;32338;50.430;6.806;2023-02-17T06:41:19;66194.94;;;7.10;100.00
46614;BME280;32338;50.430;6.806;2023-02-17T06:43:46;66200.56;;;7.16;100.00
46614;BME280;32338;50.430;6.806;2023-02-17T06:46:14;66187.84;;;7.06;100.00
46614;BME280;32338;50.430;6.806;2023-02-17T06:48:40;66192.88;;;7.11;100.00
46614;BME280;32338;50.430;6.806;2023-02-17T06:51:07;66194.41;;;7.10;100.00
46614;BME280;32338;50.430;6.806;2023-02-17T06:53:34;66207.31;;;7.22;100.00
46614;BME280;32338;50.430;6.806;2023-02-17T06:56:00;66204.91;;;7.24;100.00
46614;BME280;32338;50.430;6.806;2023-02-17T06:58:27;66203.38;;;7.18;100.00
46614;BME280;32338;50.430;6.806;2023-02-17T07:00:53;66201.34;;;7.19;100.00
46614;BME280;32338;50.430;6.806;2023-02-17T07:03:21;66202.81;;;7.18;100.00
46614;BME280;32338;50.430;6.806;2023-02-17T07:05:48;66199.84;;;7.20;100.00
46614;BME280;32338;50.430;6.806;2023-02-17T07:08:15;66209.19;;;7.26;100.00
46614;BME280;32338;50.430;6.806;2023-02-17T07:10:42;66200.97;;;7.21;100.00
46614;BME280;32338;50.430;6.806;2023-02-17T07:13:08;66206.38;;;7.23;100.00
46614;BME280;32338;50.430;6.806;2023-02-17T07:15:35;66215.72;;;7.29;100.00
46614;BME280;32338;50.430;6.806;2023-02-17T07:18:02;66216.50;;;7.33;100.00
46614;BME280;32338;50.430;6.806;2023-02-17T07:20:30;66211.44;;;7.28;100.00
46614;BME280;32338;50.430;6.806;2023-02-17T07:22:57;66214.41;;;7.26;100.00
46614;BME280;32338;50.430;6.806;2023-02-17T07:25:24;66221.34;;;7.35;100.00
46614;BME280;32338;50.430;6.806;2023-02-17T07:27:51;66211.09;;;7.30;100.00
46614;BME280;32338;50.430;6.806;2023-02-17T07:30:18;66212.75;;;7.32;100.00
46614;BME280;32338;50.430;6.806;2023-02-17T07:32:44;66215.56;;;7.34;100.00
46614;BME280;32338;50.430;6.806;2023-02-17T07:35:11;66220.78;;;7.34;100.00
46614;BME280;32338;50.430;6.806;2023-02-17T07:37:39;66224.56;;;7.42;100.00
46614;BME280;32338;50.430;6.806;2023-02-17T07:40:06;66223.25;;;7.39;100.00
46614;BME280;32338;50.430;6.806;2023-02-17T07:42:33;66235.41;;;7.47;100.00
46614;BME280;32338;50.430;6.806;2023-02-17T07:45:00;66234.81;;;7.47;100.00
46614;BME280;32338;50.430;6.806;2023-02-17T07:47:26;66237.28;;;7.52;100.00
46614;BME280;32338;50.430;6.806;2023-02-17T07:49:53;66249.25;;;7.58;100.00
46614;BME280;32338;50.430;6.806;2023-02-17T07:52:20;66244.22;;;7.60;100.00
46614;BME280;32338;50.430;6.806;2023-02-17T07:54:48;66241.97;;;7.58;100.00
46614;BME280;32338;50.430;6.806;2023-02-17T07:57:14;66237.47;;;7.54;100.00
46614;BME280;32338;50.430;6.806;2023-02-17T07:59:42;66244.75;;;7.54;100.00
46614;BME280;32338;50.430;6.806;2023-02-17T08:02:10;66240.84;;;7.57;100.00
46614;BME280;32338;50.430;6.806;2023-02-17T08:04:37;66256.41;;;7.69;100.00
46614;BME280;32338;50.430;6.806;2023-02-17T08:07:03;66245.16;;;7.59;100.00
46614;BME280;32338;50.430;6.806;2023-02-17T08:09:30;66250.56;;;7.61;100.00
46614;BME280;32338;50.430;6.806;2023-02-17T08:12:17;66268.00;;;7.77;100.00
46614;BME280;32338;50.430;6.806;2023-02-17T08:15:02;66262.94;;;7.73;100.00
46614;BME280;32338;50.430;6.806;2023-02-17T08:17:29;66259.94;;;7.75;100.00
46614;BME280;32338;50.430;6.806;2023-02-17T08:19:56;66276.25;;;7.90;100.00
46614;BME280;32338;50.430;6.806;2023-02-17T08:22:22;66264.47;;;7.79;100.00
46614;BME280;32338;50.430;6.806;2023-02-17T08:24:49;66270.25;;;7.79;100.00
46614;BME280;32338;50.430;6.806;2023-02-17T08:27:18;66269.09;;;7.78;100.00
46614;BME280;32338;50.430;6.806;2023-02-17T08:29:45;66283.72;;;7.92;100.00
46614;BME280;32338;50.430;6.806;2023-02-17T08:32:12;66288.22;;;7.96;100.00
46614;BME280;32338;50.430;6.806;2023-02-17T08:34:39;66290.69;;;8.01;100.00
46614;BME280;32338;50.430;6.806;2023-02-17T08:37:06;66291.03;;;7.99;100.00
46614;BME280;32338;50.430;6.806;2023-02-17T08:39:34;66299.09;;;8.08;100.00
46614;BME280;32338;50.430;6.806;2023-02-17T08:42:02;66298.75;;;8.10;100.00
46614;BME280;32338;50.430;6.806;2023-02-17T08:44:32;66294.25;;;8.06;100.00
46614;BME280;32338;50.430;6.806;2023-02-17T08:47:00;66303.03;;;8.12;100.00
46614;BME280;32338;50.430;6.806;2023-02-17T08:49:26;66295.38;;;8.07;100.00
46614;BME280;32338;50.430;6.806;2023-02-17T08:51:57;66304.16;;;8.13;100.00
46614;BME280;32338;50.430;6.806;2023-02-17T08:54:24;66299.09;;;8.08;100.00
46614;BME280;32338;50.430;6.806;2023-02-17T08:56:50;66305.31;;;8.14;100.00
46614;BME280;32338;50.430;6.806;2023-02-17T08:59:17;66320.28;;;8.25;100.00
46614;BME280;32338;50.430;6.806;2023-02-17T09:01:45;66319.75;;;8.32;100.00
46614;BME280;32338;50.430;6.806;2023-02-17T09:04:15;66317.81;;;8.21;100.00
46614;BME280;32338;50.430;6.806;2023-02-17T09:06:45;66325.34;;;8.30;100.00
46614;BME280;32338;50.430;6.806;2023-02-17T09:09:16;66316.53;;;8.24;100.00
46614;BME280;32338;50.430;6.806;2023-02-17T09:11:43;66337.16;;;8.41;100.00
46614;BME280;32338;50.430;6.806;2023-02-17T09:14:10;66351.25;;;8.54;100.00
46614;BME280;32338;50.430;6.806;2023-02-17T09:16:37;66341.66;;;8.45;100.00
46614;BME280;32338;50.430;6.806;2023-02-17T09:19:06;66340.75;;;8.47;100.00
46614;BME280;32338;50.430;6.806;2023-02-17T09:21:32;66339.94;;;8.43;100.00
46614;BME280;32338;50.430;6.806;2023-02-17T09:23:59;66344.69;;;8.50;100.00
46614;BME280;32338;50.430;6.806;2023-02-17T09:26:26;66356.28;;;8.58;100.00
46614;BME280;32338;50.430;6.806;2023-02-17T09:28:52;66354.59;;;8.57;100.00
46614;BME280;32338;50.430;6.806;2023-02-17T09:31:21;66352.91;;;8.55;100.00
46614;BME280;32338;50.430;6.806;2023-02-17T09:33:48;66358.34;;;8.58;100.00
46614;BME280;32338;50.430;6.806;2023-02-17T09:36:19;66349.03;;;8.59;100.00
46614;BME280;32338;50.430;6.806;2023-02-17T09:38:47;66340.94;;;8.49;100.00
46614;BME280;32338;50.430;6.806;2023-02-17T09:41:16;66337.91;;;8.44;100.00
46614;BME280;32338;50.430;6.806;2023-02-17T09:43:44;66347.84;;;8.51;100.00
46614;BME280;32338;50.430;6.806;2023-02-17T09:46:15;66356.66;;;8.56;100.00
46614;BME280;32338;50.430;6.806;2023-02-17T09:48:45;66361.34;;;8.63;100.00
46614;BME280;32338;50.430;6.806;2023-02-17T09:51:20;66372.41;;;8.71;100.00
46614;BME280;32338;50.430;6.806;2023-02-17T09:53:52;66361.56;;;8.66;100.00
46614;BME280;32338;50.430;6.806;2023-02-17T09:56:27;66364.56;;;8.71;100.00
46614;BME280;32338;50.430;6.806;2023-02-17T09:58:57;66369.78;;;8.71;100.00
46614;BME280;32338;50.430;6.806;2023-02-17T10:01:29;66377.09;;;8.77;100.00
46614;BME280;32338;50.430;6.806;2023-02-17T10:04:01;66366.03;;;8.70;100.00
46614;BME280;32338;50.430;6.806;2023-02-17T10:06:35;66384.97;;;8.85;100.00
46614;BME280;32338;50.430;6.806;2023-02-17T10:09:05;66391.56;;;8.96;100.00
46614;BME280;32338;50.430;6.806;2023-02-17T10:11:35;66401.69;;;9.05;100.00
46614;BME280;32338;50.430;6.806;2023-02-17T10:14:05;66404.09;;;9.02;100.00
46614;BME280;32338;50.430;6.806;2023-02-17T10:16:38;66395.50;;;8.99;100.00
46614;BME280;32338;50.430;6.806;2023-02-17T10:19:11;66406.00;;;9.06;100.00
46614;BME280;32338;50.430;6.806;2023-02-17T10:21:45;66409.38;;;9.09;100.00
46614;BME280;32338;50.430;6.806;2023-02-17T10:24:13;66411.06;;;9.11;100.00
46614;BME280;32338;50.430;6.806;2023-02-17T10:26:53;66415.72;;;9.11;100.00
46614;BME280;32338;50.430;6.806;2023-02-17T10:29:30;66422.09;;;9.19;100.00
46614;BME280;32338;50.430;6.806;2023-02-17T10:32:13;66437.69;;;9.31;100.00
46614;BME280;32338;50.430;6.806;2023-02-17T10:34:45;66429.44;;;9.25;100.00
46614;BME280;32338;50.430;6.806;2023-02-17T10:37:25;66445.97;;;9.43;100.00
46614;BME280;32338;50.430;6.806;2023-02-17T10:39:56;66446.91;;;9.41;100.00
46614;BME280;32338;50.430;6.806;2023-02-17T10:42:25;66449.91;;;9.47;100.00
46614;BME280;32338;50.430;6.806;2023-02-17T10:44:59;66457.56;;;9.51;100.00
46614;BME280;32338;50.430;6.806;2023-02-17T10:47:27;66464.72;;;9.63;100.00
46614;BME280;32338;50.430;6.806;2023-02-17T10:49:55;66457.97;;;9.56;100.00
46614;BME280;32338;50.430;6.806;2023-02-17T10:52:32;66465.09;;;9.61;100.00
46614;BME280;32338;50.430;6.806;2023-02-17T10:55:04;66476.00;;;9.73;100.00
46614;BME280;32338;50.430;6.806;2023-02-17T10:57:36;66493.03;;;9.84;100.00
46614;BME280;32338;50.430;6.806;2023-02-17T11:00:06;66498.69;;;9.89;100.00
46614;BME280;32338;50.430;6.806;2023-02-17T11:02:37;66500.00;;;9.93;100.00
46614;BME280;32338;50.430;6.806;2023-02-17T11:05:06;66517.09;;;10.11;100.00
46614;BME280;32338;50.430;6.806;2023-02-17T11:07:36;66515.41;;;10.09;100.00
46614;BME280;32338;50.430;6.806;2023-02-17T11:10:19;66523.09;;;10.14;100.00
46614;BME280;32338;50.430;6.806;2023-02-17T11:12:48;66526.47;;;10.17;100.00
46614;BME280;32338;50.430;6.806;2023-02-17T11:15:17;66540.56;;;10.30;100.00
46614;BME280;32338;50.430;6.806;2023-02-17T11:17:46;66549.78;;;10.41;100.00
46614;BME280;32338;50.430;6.806;2023-02-17T11:20:33;66548.84;;;10.42;100.00
46614;BME280;32338;50.430;6.806;2023-02-17T11:23:06;66560.28;;;10.48;100.00
46614;BME280;32338;50.430;6.806;2023-02-17T11:25:35;66555.78;;;10.44;100.00
46614;BME280;32338;50.430;6.806;2023-02-17T11:28:05;66557.09;;;10.47;100.00
46614;BME280;32338;50.430;6.806;2023-02-17T11:30:38;66562.53;;;10.50;100.00
46614;BME280;32338;50.430;6.806;2023-02-17T11:33:12;66557.28;;;10.43;100.00
46614;BME280;32338;50.430;6.806;2023-02-17T11:35:47;66556.56;;;10.47;100.00
46614;BME280;32338;50.430;6.806;2023-02-17T11:38:18;66560.66;;;10.46;100.00
46614;BME280;32338;50.430;6.806;2023-02-17T11:40:54;66555.22;;;10.43;100.00
46614;BME280;32338;50.430;6.806;2023-02-17T11:43:22;66565.56;;;10.55;100.00
46614;BME280;32338;50.430;6.806;2023-02-17T11:46:06;66566.09;;;10.48;100.00
46614;BME280;32338;50.430;6.806;2023-02-17T11:48:52;66574.19;;;10.58;100.00
46614;BME280;32338;50.430;6.806;2023-02-17T11:51:28;66565.56;;;10.55;100.00
46614;BME280;32338;50.430;6.806;2023-02-17T11:54:08;66582.84;;;10.68;100.00
46614;BME280;32338;50.430;6.806;2023-02-17T11:56:44;66608.00;;;10.89;100.00
46614;BME280;32338;50.430;6.806;2023-02-17T11:59:32;66601.06;;;10.87;100.00
46614;BME280;32338;50.430;6.806;2023-02-17T12:02:13;66608.56;;;10.90;100.00
46614;BME280;32338;50.430;6.806;2023-02-17T12:04:47;66597.28;;;10.79;100.00
46614;BME280;32338;50.430;6.806;2023-02-17T12:07:33;66593.53;;;10.78;100.00
46614;BME280;32338;50.430;6.806;2023-02-17T12:10:13;66606.50;;;10.90;100.00
46614;BME280;32338;50.430;6.806;2023-02-17T12:12:55;66610.25;;;10.91;100.00
46614;BME280;32338;50.430;6.806;2023-02-17T12:15:35;66612.91;;;10.98;100.00
46614;BME280;32338;50.430;6.806;2023-02-17T12:18:14;66630.00;;;11.09;100.00
46614;BME280;32338;50.430;6.806;2023-02-17T12:20:49;66630.00;;;11.09;100.00
46614;BME280;32338;50.430;6.806;2023-02-17T12:23:34;66634.69;;;11.16;100.00
46614;BME280;32338;50.430;6.806;2023-02-17T12:26:13;66623.22;;;11.03;100.00
46614;BME280;32338;50.430;6.806;2023-02-17T12:28:56;66619.09;;;11.04;100.00
46614;BME280;32338;50.430;6.806;2023-02-17T12:31:49;66636.94;;;11.18;100.00
46614;BME280;32338;50.430;6.806;2023-02-17T12:34:27;66634.31;;;11.18;100.00
46614;BME280;32338;50.430;6.806;2023-02-17T12:36:56;66638.63;;;11.19;100.00
46614;BME280;32338;50.430;6.806;2023-02-17T12:39:29;66649.72;;;11.27;100.00
46614;BME280;32338;50.430;6.806;2023-02-17T12:41:59;66636.38;;;11.17;100.00
46614;BME280;32338;50.430;6.806;2023-02-17T12:44:30;66646.31;;;11.24;100.00
46614;BME280;32338;50.430;6.806;2023-02-17T12:47:03;66645.41;;;11.26;100.00
46614;BME280;32338;50.430;6.806;2023-02-17T12:49:36;66667.94;;;11.46;100.00
46614;BME280;32338;50.430;6.806;2023-02-17T12:52:11;66658.34;;;11.38;100.00
46614;BME280;32338;50.430;6.806;2023-02-17T12:54:43;66665.13;;;11.44;100.00
46614;BME280;32338;50.430;6.806;2023-02-17T12:57:15;66668.88;;;11.45;100.00
46614;BME280;32338;50.430;6.806;2023-02-17T12:59:45;66656.88;;;11.39;100.00
46614;BME280;32338;50.430;6.806;2023-02-17T13:02:14;66635.44;;;11.19;100.00
46614;BME280;32338;50.430;6.806;2023-02-17T13:04:42;66635.81;;;11.17;100.00
46614;BME280;32338;50.430;6.806;2023-02-17T13:07:39;66633.00;;;11.14;100.00
46614;BME280;32338;50.430;6.806;2023-02-17T13:10:19;66634.69;;;11.16;100.00
46614;BME280;32338;50.430;6.806;2023-02-17T13:13:00;66627.38;;;11.09;100.00
46614;BME280;32338;50.430;6.806;2023-02-17T13:15:39;66611.41;;;10.99;100.00
46614;BME280;32338;50.430;6.806;2023-02-17T13:18:12;66632.06;;;11.16;100.00